sensor_id;sensor_type;location;lat;lon;timestamp;P1;durP1;ratioP1;P2;durP2;ratioP2
8665;SDS011;4370;48.916;8.380;2024-03-25T00:01:37;4.50;;;2.17;;
8665;SDS011;4370;48.916;8.380;2024-03-25T00:04:03;5.97;;;2.23;;
8665;SDS011;4370;48.916;8.380;2024-03-25T00:06:29;7.37;;;2.70;;
8665;SDS011;4370;48.916;8.380;2024-03-25T00:08:58;5.37;;;1.93;;
8665;SDS011;4370;48.916;8.380;2024-03-25T00:11:24;4.60;;;2.13;;
8665;SDS011;4370;48.916;8.380;2024-03-25T00:13:50;5.13;;;2.23;;
8665;SDS011;4370;48.916;8.380;2024-03-25T00:16:16;4.87;;;2.50;;
8665;SDS011;4370;48.916;8.380;2024-03-25T00:18:41;3.63;;;2.40;;
8665;SDS011;4370;48.916;8.380;2024-03-25T00:21:08;3.63;;;2.03;;
8665;SDS011;4370;48.916;8.380;2024-03-25T00:23:34;6.50;;;2.30;;
8665;SDS011;4370;48.916;8.380;2024-03-25T00:26:00;6.07;;;2.57;;
8665;SDS011;4370;48.916;8.380;2024-03-25T00:28:26;6.13;;;2.73;;
8665;SDS011;4370;48.916;8.380;2024-03-25T00:30:52;4.87;;;2.20;;
8665;SDS011;4370;48.916;8.380;2024-03-25T00:33:18;5.30;;;2.30;;
8665;SDS011;4370;48.916;8.380;2024-03-25T00:35:44;3.23;;;1.80;;
8665;SDS011;4370;48.916;8.380;2024-03-25T00:38:10;7.00;;;2.43;;
8665;SDS011;4370;48.916;8.380;2024-03-25T00:40:36;4.53;;;2.20;;
8665;SDS011;4370;48.916;8.380;2024-03-25T00:43:02;3.50;;;2.17;;
8665;SDS011;4370;48.916;8.380;2024-03-25T00:45:28;4.73;;;2.30;;
8665;SDS011;4370;48.916;8.380;2024-03-25T00:47:58;5.87;;;2.30;;
8665;SDS011;4370;48.916;8.380;2024-03-25T00:50:24;5.60;;;2.30;;
8665;SDS011;4370;48.916;8.380;2024-03-25T00:52:50;3.20;;;2.27;;
8665;SDS011;4370;48.916;8.380;2024-03-25T00:55:17;4.03;;;2.30;;
8665;SDS011;4370;48.916;8.380;2024-03-25T00:57:43;4.37;;;2.50;;
8665;SDS011;4370;48.916;8.380;2024-03-25T01:00:09;4.97;;;2.00;;
8665;SDS011;4370;48.916;8.380;2024-03-25T01:02:35;6.57;;;2.30;;
8665;SDS011;4370;48.916;8.380;2024-03-25T01:05:02;6.03;;;2.20;;
8665;SDS011;4370;48.916;8.380;2024-03-25T01:07:30;6.03;;;2.13;;
8665;SDS011;4370;48.916;8.380;2024-03-25T01:09:56;4.00;;;2.00;;
8665;SDS011;4370;48.916;8.380;2024-03-25T01:12:25;9.57;;;2.43;;
8665;SDS011;4370;48.916;8.380;2024-03-25T01:14:51;4.50;;;2.23;;
8665;SDS011;4370;48.916;8.380;2024-03-25T01:17:17;4.67;;;2.30;;
8665;SDS011;4370;48.916;8.380;2024-03-25T01:19:43;3.30;;;1.80;;
8665;SDS011;4370;48.916;8.380;2024-03-25T01:22:09;8.80;;;2.40;;
8665;SDS011;4370;48.916;8.380;2024-03-25T01:24:34;4.53;;;2.30;;
8665;SDS011;4370;48.916;8.380;2024-03-25T01:27:00;5.30;;;2.10;;
8665;SDS011;4370;48.916;8.380;2024-03-25T01:29:26;3.30;;;2.10;;
8665;SDS011;4370;48.916;8.380;2024-03-25T01:31:54;5.80;;;2.10;;
8665;SDS011;4370;48.916;8.380;2024-03-25T01:34:19;4.30;;;2.57;;
8665;SDS011;4370;48.916;8.380;2024-03-25T01:36:45;3.20;;;2.27;;
8665;SDS011;4370;48.916;8.380;2024-03-25T01:39:11;5.53;;;2.63;;
8665;SDS011;4370;48.916;8.380;2024-03-25T01:41:38;3.90;;;2.00;;
8665;SDS011;4370;48.916;8.380;2024-03-25T01:44:04;3.90;;;2.07;;
8665;SDS011;4370;48.916;8.380;2024-03-25T01:46:30;4.00;;;2.47;;
8665;SDS011;4370;48.916;8.380;2024-03-25T01:48:56;3.83;;;2.10;;
8665;SDS011;4370;48.916;8.380;2024-03-25T01:51:23;4.13;;;2.20;;
8665;SDS011;4370;48.916;8.380;2024-03-25T01:53:49;2.43;;;2.10;;
8665;SDS011;4370;48.916;8.380;2024-03-25T01:56:17;3.47;;;1.90;;
8665;SDS011;4370;48.916;8.380;2024-03-25T01:58:44;3.20;;;2.10;;
8665;SDS011;4370;48.916;8.380;2024-03-25T02:01:10;4.80;;;2.20;;
8665;SDS011;4370;48.916;8.380;2024-03-25T02:03:40;4.97;;;2.30;;
8665;SDS011;4370;48.916;8.380;2024-03-25T02:06:09;4.70;;;2.27;;
8665;SDS011;4370;48.916;8.380;2024-03-25T02:11:44;5.90;;;2.50;;
8665;SDS011;4370;48.916;8.380;2024-03-25T02:14:10;6.10;;;2.53;;
8665;SDS011;4370;48.916;8.380;2024-03-25T02:16:36;5.40;;;2.30;;
8665;SDS011;4370;48.916;8.380;2024-03-25T02:19:02;4.03;;;2.00;;
8665;SDS011;4370;48.916;8.380;2024-03-25T02:21:28;3.07;;;2.30;;
8665;SDS011;4370;48.916;8.380;2024-03-25T02:23:55;4.40;;;2.30;;
8665;SDS011;4370;48.916;8.380;2024-03-25T02:26:24;5.00;;;2.63;;
8665;SDS011;4370;48.916;8.380;2024-03-25T02:28:50;4.67;;;2.33;;
8665;SDS011;4370;48.916;8.380;2024-03-25T02:31:16;3.33;;;2.30;;
8665;SDS011;4370;48.916;8.380;2024-03-25T02:33:42;2.73;;;2.30;;
8665;SDS011;4370;48.916;8.380;2024-03-25T02:36:08;5.60;;;2.20;;
8665;SDS011;4370;48.916;8.380;2024-03-25T02:38:34;4.00;;;2.27;;
8665;SDS011;4370;48.916;8.380;2024-03-25T02:41:00;5.03;;;2.60;;
8665;SDS011;4370;48.916;8.380;2024-03-25T02:43:26;6.20;;;2.83;;
8665;SDS011;4370;48.916;8.380;2024-03-25T02:45:52;9.70;;;2.50;;
8665;SDS011;4370;48.916;8.380;2024-03-25T02:48:18;3.37;;;2.30;;
8665;SDS011;4370;48.916;8.380;2024-03-25T02:50:43;4.90;;;2.70;;
8665;SDS011;4370;48.916;8.380;2024-03-25T02:53:09;5.60;;;2.53;;
8665;SDS011;4370;48.916;8.380;2024-03-25T02:55:35;4.00;;;2.13;;
8665;SDS011;4370;48.916;8.380;2024-03-25T02:58:01;4.67;;;2.40;;
8665;SDS011;4370;48.916;8.380;2024-03-25T03:00:27;3.83;;;2.20;;
8665;SDS011;4370;48.916;8.380;2024-03-25T03:02:53;5.17;;;2.67;;
8665;SDS011;4370;48.916;8.380;2024-03-25T03:05:19;6.60;;;2.70;;
8665;SDS011;4370;48.916;8.380;2024-03-25T03:07:45;6.23;;;2.97;;
8665;SDS011;4370;48.916;8.380;2024-03-25T03:10:11;4.33;;;2.40;;
8665;SDS011;4370;48.916;8.380;2024-03-25T03:12:37;3.07;;;2.20;;
8665;SDS011;4370;48.916;8.380;2024-03-25T03:15:03;4.77;;;2.53;;
8665;SDS011;4370;48.916;8.380;2024-03-25T03:17:29;5.27;;;2.20;;
8665;SDS011;4370;48.916;8.380;2024-03-25T03:19:55;4.97;;;2.20;;
8665;SDS011;4370;48.916;8.380;2024-03-25T03:22:21;5.07;;;2.53;;
8665;SDS011;4370;48.916;8.380;2024-03-25T03:24:47;3.50;;;2.10;;
8665;SDS011;4370;48.916;8.380;2024-03-25T03:27:13;9.23;;;3.77;;
8665;SDS011;4370;48.916;8.380;2024-03-25T03:29:39;3.17;;;2.27;;
8665;SDS011;4370;48.916;8.380;2024-03-25T03:32:05;3.57;;;2.67;;
8665;SDS011;4370;48.916;8.380;2024-03-25T03:34:31;5.47;;;2.60;;
8665;SDS011;4370;48.916;8.380;2024-03-25T03:36:57;3.93;;;2.10;;
8665;SDS011;4370;48.916;8.380;2024-03-25T03:39:23;2.63;;;2.10;;
8665;SDS011;4370;48.916;8.380;2024-03-25T03:41:48;5.40;;;2.63;;
8665;SDS011;4370;48.916;8.380;2024-03-25T03:44:14;5.00;;;2.70;;
8665;SDS011;4370;48.916;8.380;2024-03-25T03:46:41;6.60;;;2.67;;
8665;SDS011;4370;48.916;8.380;2024-03-25T03:49:07;3.33;;;2.20;;
8665;SDS011;4370;48.916;8.380;2024-03-25T03:51:32;8.53;;;3.23;;
8665;SDS011;4370;48.916;8.380;2024-03-25T03:54:00;4.40;;;2.57;;
8665;SDS011;4370;48.916;8.380;2024-03-25T03:56:26;5.10;;;2.90;;
8665;SDS011;4370;48.916;8.380;2024-03-25T03:58:52;4.07;;;2.30;;
8665;SDS011;4370;48.916;8.380;2024-03-25T04:01:18;3.87;;;2.27;;
8665;SDS011;4370;48.916;8.380;2024-03-25T04:03:44;5.03;;;2.57;;
8665;SDS011;4370;48.916;8.380;2024-03-25T04:06:11;6.57;;;2.70;;
8665;SDS011;4370;48.916;8.380;2024-03-25T04:08:38;5.00;;;2.57;;
8665;SDS011;4370;48.916;8.380;2024-03-25T04:11:04;7.63;;;2.50;;
8665;SDS011;4370;48.916;8.380;2024-03-25T04:13:31;5.10;;;2.60;;
8665;SDS011;4370;48.916;8.380;2024-03-25T04:16:00;7.73;;;2.80;;
8665;SDS011;4370;48.916;8.380;2024-03-25T04:18:27;6.23;;;2.80;;
8665;SDS011;4370;48.916;8.380;2024-03-25T04:20:53;4.30;;;2.53;;
8665;SDS011;4370;48.916;8.380;2024-03-25T04:23:19;4.20;;;2.20;;
8665;SDS011;4370;48.916;8.380;2024-03-25T04:25:45;3.83;;;2.30;;
8665;SDS011;4370;48.916;8.380;2024-03-25T04:28:11;4.03;;;2.63;;
8665;SDS011;4370;48.916;8.380;2024-03-25T04:30:37;4.17;;;2.30;;
8665;SDS011;4370;48.916;8.380;2024-03-25T04:33:03;5.43;;;2.50;;
8665;SDS011;4370;48.916;8.380;2024-03-25T04:35:29;7.13;;;2.57;;
8665;SDS011;4370;48.916;8.380;2024-03-25T04:37:55;3.50;;;2.30;;
8665;SDS011;4370;48.916;8.380;2024-03-25T04:40:21;8.03;;;3.00;;
8665;SDS011;4370;48.916;8.380;2024-03-25T04:42:47;5.47;;;2.70;;
8665;SDS011;4370;48.916;8.380;2024-03-25T04:45:13;4.10;;;2.63;;
8665;SDS011;4370;48.916;8.380;2024-03-25T04:47:40;3.90;;;2.10;;
8665;SDS011;4370;48.916;8.380;2024-03-25T04:50:06;6.47;;;2.90;;
8665;SDS011;4370;48.916;8.380;2024-03-25T04:52:32;4.90;;;2.67;;
8665;SDS011;4370;48.916;8.380;2024-03-25T04:54:57;3.90;;;2.47;;
8665;SDS011;4370;48.916;8.380;2024-03-25T04:57:23;3.37;;;2.37;;
8665;SDS011;4370;48.916;8.380;2024-03-25T04:59:49;3.77;;;2.50;;
8665;SDS011;4370;48.916;8.380;2024-03-25T05:02:15;4.37;;;2.60;;
8665;SDS011;4370;48.916;8.380;2024-03-25T05:04:41;5.03;;;2.70;;
8665;SDS011;4370;48.916;8.380;2024-03-25T05:07:07;5.17;;;2.50;;
8665;SDS011;4370;48.916;8.380;2024-03-25T05:09:33;4.07;;;2.50;;
8665;SDS011;4370;48.916;8.380;2024-03-25T05:11:59;5.63;;;2.27;;
8665;SDS011;4370;48.916;8.380;2024-03-25T05:14:25;4.77;;;2.50;;
8665;SDS011;4370;48.916;8.380;2024-03-25T05:16:51;5.30;;;2.70;;
8665;SDS011;4370;48.916;8.380;2024-03-25T05:19:18;7.53;;;2.83;;
8665;SDS011;4370;48.916;8.380;2024-03-25T05:21:45;7.10;;;2.70;;
8665;SDS011;4370;48.916;8.380;2024-03-25T05:24:11;4.63;;;2.50;;
8665;SDS011;4370;48.916;8.380;2024-03-25T05:26:37;3.17;;;2.53;;
8665;SDS011;4370;48.916;8.380;2024-03-25T05:29:03;3.67;;;2.50;;
8665;SDS011;4370;48.916;8.380;2024-03-25T05:31:29;3.67;;;2.30;;
8665;SDS011;4370;48.916;8.380;2024-03-25T05:33:55;2.57;;;2.20;;
8665;SDS011;4370;48.916;8.380;2024-03-25T05:36:22;4.10;;;2.40;;
8665;SDS011;4370;48.916;8.380;2024-03-25T05:38:48;2.97;;;2.10;;
8665;SDS011;4370;48.916;8.380;2024-03-25T05:41:14;3.63;;;2.20;;
8665;SDS011;4370;48.916;8.380;2024-03-25T05:43:40;3.60;;;2.10;;
8665;SDS011;4370;48.916;8.380;2024-03-25T05:46:06;2.93;;;2.30;;
8665;SDS011;4370;48.916;8.380;2024-03-25T05:48:32;4.70;;;2.00;;
8665;SDS011;4370;48.916;8.380;2024-03-25T05:51:02;3.80;;;2.37;;
8665;SDS011;4370;48.916;8.380;2024-03-25T05:53:32;3.40;;;2.07;;
8665;SDS011;4370;48.916;8.380;2024-03-25T05:55:58;2.80;;;2.33;;
8665;SDS011;4370;48.916;8.380;2024-03-25T05:58:24;2.13;;;1.93;;
8665;SDS011;4370;48.916;8.380;2024-03-25T06:00:50;2.27;;;1.90;;
8665;SDS011;4370;48.916;8.380;2024-03-25T06:03:18;2.33;;;2.00;;
8665;SDS011;4370;48.916;8.380;2024-03-25T06:05:44;2.20;;;1.90;;
8665;SDS011;4370;48.916;8.380;2024-03-25T06:08:10;2.70;;;2.10;;
8665;SDS011;4370;48.916;8.380;2024-03-25T06:10:45;2.30;;;1.93;;
8665;SDS011;4370;48.916;8.380;2024-03-25T06:13:11;2.93;;;2.00;;
8665;SDS011;4370;48.916;8.380;2024-03-25T06:15:37;3.97;;;2.43;;
8665;SDS011;4370;48.916;8.380;2024-03-25T06:18:03;5.30;;;2.27;;
8665;SDS011;4370;48.916;8.380;2024-03-25T06:20:29;4.03;;;2.27;;
8665;SDS011;4370;48.916;8.380;2024-03-25T06:22:55;3.47;;;2.20;;
8665;SDS011;4370;48.916;8.380;2024-03-25T06:25:21;5.97;;;2.60;;
8665;SDS011;4370;48.916;8.380;2024-03-25T06:27:47;4.23;;;2.30;;
8665;SDS011;4370;48.916;8.380;2024-03-25T06:30:13;4.60;;;2.33;;
8665;SDS011;4370;48.916;8.380;2024-03-25T06:32:58;5.70;;;2.47;;
8665;SDS011;4370;48.916;8.380;2024-03-25T06:35:43;4.07;;;2.40;;
8665;SDS011;4370;48.916;8.380;2024-03-25T06:38:12;3.13;;;2.03;;
8665;SDS011;4370;48.916;8.380;2024-03-25T06:40:37;3.87;;;2.30;;
8665;SDS011;4370;48.916;8.380;2024-03-25T06:43:04;3.20;;;2.20;;
8665;SDS011;4370;48.916;8.380;2024-03-25T06:45:30;7.67;;;2.53;;
8665;SDS011;4370;48.916;8.380;2024-03-25T06:47:56;3.60;;;2.07;;
8665;SDS011;4370;48.916;8.380;2024-03-25T06:50:22;3.17;;;2.17;;
8665;SDS011;4370;48.916;8.380;2024-03-25T06:52:48;3.90;;;2.23;;
8665;SDS011;4370;48.916;8.380;2024-03-25T06:55:14;4.07;;;2.40;;
8665;SDS011;4370;48.916;8.380;2024-03-25T06:57:40;4.93;;;2.00;;
8665;SDS011;4370;48.916;8.380;2024-03-25T07:00:06;4.70;;;2.20;;
8665;SDS011;4370;48.916;8.380;2024-03-25T07:02:38;4.07;;;2.17;;
8665;SDS011;4370;48.916;8.380;2024-03-25T07:05:04;5.00;;;2.30;;
8665;SDS011;4370;48.916;8.380;2024-03-25T07:07:30;3.63;;;1.90;;
8665;SDS011;4370;48.916;8.380;2024-03-25T07:09:56;4.17;;;2.00;;
8665;SDS011;4370;48.916;8.380;2024-03-25T07:12:22;5.13;;;1.97;;
8665;SDS011;4370;48.916;8.380;2024-03-25T07:14:48;4.20;;;1.93;;
8665;SDS011;4370;48.916;8.380;2024-03-25T07:17:15;4.97;;;2.00;;
8665;SDS011;4370;48.916;8.380;2024-03-25T07:19:41;4.80;;;1.63;;
8665;SDS011;4370;48.916;8.380;2024-03-25T07:22:08;4.10;;;1.90;;
8665;SDS011;4370;48.916;8.380;2024-03-25T07:24:34;4.57;;;2.00;;
8665;SDS011;4370;48.916;8.380;2024-03-25T07:27:00;3.80;;;1.83;;
8665;SDS011;4370;48.916;8.380;2024-03-25T07:29:26;4.23;;;1.90;;
8665;SDS011;4370;48.916;8.380;2024-03-25T07:31:52;4.00;;;1.85;;
8665;SDS011;4370;48.916;8.380;2024-03-25T07:34:18;2.72;;;1.80;;
8665;SDS011;4370;48.916;8.380;2024-03-25T07:36:44;3.00;;;1.60;;
8665;SDS011;4370;48.916;8.380;2024-03-25T07:39:10;3.33;;;1.83;;
8665;SDS011;4370;48.916;8.380;2024-03-25T07:41:36;3.80;;;2.03;;
8665;SDS011;4370;48.916;8.380;2024-03-25T07:44:02;4.00;;;1.88;;
8665;SDS011;4370;48.916;8.380;2024-03-25T07:46:29;3.33;;;1.90;;
8665;SDS011;4370;48.916;8.380;2024-03-25T07:48:55;4.10;;;1.80;;
8665;SDS011;4370;48.916;8.380;2024-03-25T07:51:21;5.00;;;2.50;;
8665;SDS011;4370;48.916;8.380;2024-03-25T07:53:47;3.60;;;1.93;;
8665;SDS011;4370;48.916;8.380;2024-03-25T07:56:14;7.13;;;2.43;;
8665;SDS011;4370;48.916;8.380;2024-03-25T07:58:40;3.27;;;1.93;;
8665;SDS011;4370;48.916;8.380;2024-03-25T08:01:06;4.57;;;2.23;;
8665;SDS011;4370;48.916;8.380;2024-03-25T08:03:32;4.63;;;2.00;;
8665;SDS011;4370;48.916;8.380;2024-03-25T08:05:58;3.93;;;2.20;;
8665;SDS011;4370;48.916;8.380;2024-03-25T08:08:24;4.90;;;2.30;;
8665;SDS011;4370;48.916;8.380;2024-03-25T08:10:50;5.37;;;2.03;;
8665;SDS011;4370;48.916;8.380;2024-03-25T08:13:17;7.37;;;2.60;;
8665;SDS011;4370;48.916;8.380;2024-03-25T08:15:44;6.07;;;2.00;;
8665;SDS011;4370;48.916;8.380;2024-03-25T08:18:10;3.23;;;2.17;;
8665;SDS011;4370;48.916;8.380;2024-03-25T08:20:37;5.50;;;2.20;;
8665;SDS011;4370;48.916;8.380;2024-03-25T08:23:03;5.17;;;2.40;;
8665;SDS011;4370;48.916;8.380;2024-03-25T08:25:29;3.90;;;2.20;;
8665;SDS011;4370;48.916;8.380;2024-03-25T08:27:55;6.23;;;2.40;;
8665;SDS011;4370;48.916;8.380;2024-03-25T08:30:21;5.10;;;2.83;;
8665;SDS011;4370;48.916;8.380;2024-03-25T08:32:47;4.63;;;2.33;;
8665;SDS011;4370;48.916;8.380;2024-03-25T08:35:13;3.67;;;2.27;;
8665;SDS011;4370;48.916;8.380;2024-03-25T08:37:39;3.53;;;2.27;;
8665;SDS011;4370;48.916;8.380;2024-03-25T08:40:05;8.43;;;2.80;;
8665;SDS011;4370;48.916;8.380;2024-03-25T08:42:40;4.77;;;2.50;;
8665;SDS011;4370;48.916;8.380;2024-03-25T08:45:06;5.20;;;2.43;;
8665;SDS011;4370;48.916;8.380;2024-03-25T08:47:32;5.07;;;2.23;;
8665;SDS011;4370;48.916;8.380;2024-03-25T08:49:58;4.03;;;2.40;;
8665;SDS011;4370;48.916;8.380;2024-03-25T08:52:24;3.60;;;2.50;;
8665;SDS011;4370;48.916;8.380;2024-03-25T08:54:50;5.27;;;2.30;;
8665;SDS011;4370;48.916;8.380;2024-03-25T08:57:15;4.37;;;2.10;;
8665;SDS011;4370;48.916;8.380;2024-03-25T08:59:41;5.10;;;2.30;;
8665;SDS011;4370;48.916;8.380;2024-03-25T09:02:07;9.63;;;3.03;;
8665;SDS011;4370;48.916;8.380;2024-03-25T09:04:33;6.37;;;2.13;;
8665;SDS011;4370;48.916;8.380;2024-03-25T09:07:02;6.37;;;2.57;;
8665;SDS011;4370;48.916;8.380;2024-03-25T09:09:29;5.93;;;2.33;;
8665;SDS011;4370;48.916;8.380;2024-03-25T09:12:14;6.93;;;2.70;;
8665;SDS011;4370;48.916;8.380;2024-03-25T09:14:39;4.97;;;2.40;;
8665;SDS011;4370;48.916;8.380;2024-03-25T09:17:05;8.47;;;2.67;;
8665;SDS011;4370;48.916;8.380;2024-03-25T09:19:31;8.90;;;2.73;;
8665;SDS011;4370;48.916;8.380;2024-03-25T09:21:57;3.53;;;2.27;;
8665;SDS011;4370;48.916;8.380;2024-03-25T09:24:23;4.80;;;2.40;;
8665;SDS011;4370;48.916;8.380;2024-03-25T09:26:49;5.53;;;2.37;;
8665;SDS011;4370;48.916;8.380;2024-03-25T09:29:15;3.73;;;2.10;;
8665;SDS011;4370;48.916;8.380;2024-03-25T09:31:41;5.17;;;2.37;;
8665;SDS011;4370;48.916;8.380;2024-03-25T09:34:07;5.40;;;2.30;;
8665;SDS011;4370;48.916;8.380;2024-03-25T09:36:33;5.47;;;2.30;;
8665;SDS011;4370;48.916;8.380;2024-03-25T09:38:59;5.37;;;2.17;;
8665;SDS011;4370;48.916;8.380;2024-03-25T09:41:26;6.47;;;2.40;;
8665;SDS011;4370;48.916;8.380;2024-03-25T09:43:54;5.40;;;2.57;;
8665;SDS011;4370;48.916;8.380;2024-03-25T09:46:22;3.80;;;2.23;;
8665;SDS011;4370;48.916;8.380;2024-03-25T09:48:48;3.13;;;1.90;;
8665;SDS011;4370;48.916;8.380;2024-03-25T09:51:14;4.73;;;1.97;;
8665;SDS011;4370;48.916;8.380;2024-03-25T09:53:40;4.97;;;1.90;;
8665;SDS011;4370;48.916;8.380;2024-03-25T09:56:06;4.00;;;1.77;;
8665;SDS011;4370;48.916;8.380;2024-03-25T09:58:32;4.63;;;1.97;;
8665;SDS011;4370;48.916;8.380;2024-03-25T10:00:58;4.40;;;1.87;;
8665;SDS011;4370;48.916;8.380;2024-03-25T10:03:24;4.00;;;1.90;;
8665;SDS011;4370;48.916;8.380;2024-03-25T10:05:50;2.90;;;1.70;;
8665;SDS011;4370;48.916;8.380;2024-03-25T10:08:20;3.33;;;1.50;;
8665;SDS011;4370;48.916;8.380;2024-03-25T10:10:46;3.93;;;1.40;;
8665;SDS011;4370;48.916;8.380;2024-03-25T10:13:15;4.20;;;1.50;;
8665;SDS011;4370;48.916;8.380;2024-03-25T10:15:40;5.67;;;1.80;;
8665;SDS011;4370;48.916;8.380;2024-03-25T10:18:06;3.13;;;1.40;;
8665;SDS011;4370;48.916;8.380;2024-03-25T10:20:33;2.87;;;1.30;;
8665;SDS011;4370;48.916;8.380;2024-03-25T10:22:59;2.83;;;1.20;;
8665;SDS011;4370;48.916;8.380;2024-03-25T10:25:26;2.97;;;1.40;;
8665;SDS011;4370;48.916;8.380;2024-03-25T10:27:56;3.27;;;1.40;;
8665;SDS011;4370;48.916;8.380;2024-03-25T10:30:23;2.00;;;1.17;;
8665;SDS011;4370;48.916;8.380;2024-03-25T10:35:28;2.40;;;1.43;;
8665;SDS011;4370;48.916;8.380;2024-03-25T10:37:58;4.37;;;1.67;;
8665;SDS011;4370;48.916;8.380;2024-03-25T10:40:28;4.07;;;1.70;;
8665;SDS011;4370;48.916;8.380;2024-03-25T10:43:04;2.77;;;1.40;;
8665;SDS011;4370;48.916;8.380;2024-03-25T10:45:34;1.90;;;1.33;;
8665;SDS011;4370;48.916;8.380;2024-03-25T10:48:03;2.77;;;1.33;;
8665;SDS011;4370;48.916;8.380;2024-03-25T10:50:40;5.97;;;1.77;;
8665;SDS011;4370;48.916;8.380;2024-03-25T10:53:06;2.57;;;1.37;;
8665;SDS011;4370;48.916;8.380;2024-03-25T10:55:35;2.57;;;1.50;;
8665;SDS011;4370;48.916;8.380;2024-03-25T10:58:02;3.43;;;1.40;;
8665;SDS011;4370;48.916;8.380;2024-03-25T11:00:29;2.73;;;1.60;;
8665;SDS011;4370;48.916;8.380;2024-03-25T11:02:55;3.60;;;1.73;;
8665;SDS011;4370;48.916;8.380;2024-03-25T11:05:22;4.00;;;1.70;;
8665;SDS011;4370;48.916;8.380;2024-03-25T11:07:48;4.03;;;1.70;;
8665;SDS011;4370;48.916;8.380;2024-03-25T11:10:14;3.33;;;2.03;;
8665;SDS011;4370;48.916;8.380;2024-03-25T11:12:41;2.23;;;1.50;;
8665;SDS011;4370;48.916;8.380;2024-03-25T11:15:08;3.73;;;1.60;;
8665;SDS011;4370;48.916;8.380;2024-03-25T11:17:34;2.17;;;1.57;;
8665;SDS011;4370;48.916;8.380;2024-03-25T11:20:08;4.80;;;1.43;;
8665;SDS011;4370;48.916;8.380;2024-03-25T11:22:35;4.73;;;1.40;;
8665;SDS011;4370;48.916;8.380;2024-03-25T11:25:05;4.20;;;1.67;;
8665;SDS011;4370;48.916;8.380;2024-03-25T11:27:34;3.80;;;1.90;;
8665;SDS011;4370;48.916;8.380;2024-03-25T11:30:01;5.20;;;1.60;;
8665;SDS011;4370;48.916;8.380;2024-03-25T11:32:27;3.47;;;1.50;;
8665;SDS011;4370;48.916;8.380;2024-03-25T11:34:53;2.90;;;1.63;;
8665;SDS011;4370;48.916;8.380;2024-03-25T11:37:19;3.63;;;1.73;;
8665;SDS011;4370;48.916;8.380;2024-03-25T11:39:45;2.67;;;1.70;;
8665;SDS011;4370;48.916;8.380;2024-03-25T11:42:12;3.07;;;1.67;;
8665;SDS011;4370;48.916;8.380;2024-03-25T11:44:38;3.30;;;1.90;;
8665;SDS011;4370;48.916;8.380;2024-03-25T11:47:07;3.63;;;1.73;;
8665;SDS011;4370;48.916;8.380;2024-03-25T11:49:36;3.90;;;1.43;;
8665;SDS011;4370;48.916;8.380;2024-03-25T11:52:06;3.67;;;1.53;;
8665;SDS011;4370;48.916;8.380;2024-03-25T11:54:32;4.73;;;1.70;;
8665;SDS011;4370;48.916;8.380;2024-03-25T11:56:58;3.23;;;1.30;;
8665;SDS011;4370;48.916;8.380;2024-03-25T11:59:25;6.67;;;1.90;;
8665;SDS011;4370;48.916;8.380;2024-03-25T12:01:51;2.77;;;1.70;;
8665;SDS011;4370;48.916;8.380;2024-03-25T12:04:17;2.10;;;1.47;;
8665;SDS011;4370;48.916;8.380;2024-03-25T12:06:43;3.00;;;1.43;;
8665;SDS011;4370;48.916;8.380;2024-03-25T12:09:10;3.20;;;1.83;;
8665;SDS011;4370;48.916;8.380;2024-03-25T12:11:54;4.77;;;2.00;;
8665;SDS011;4370;48.916;8.380;2024-03-25T12:14:21;3.20;;;1.60;;
8665;SDS011;4370;48.916;8.380;2024-03-25T12:16:48;2.40;;;1.57;;
8665;SDS011;4370;48.916;8.380;2024-03-25T12:19:15;2.87;;;1.43;;
8665;SDS011;4370;48.916;8.380;2024-03-25T12:21:43;2.57;;;1.70;;
8665;SDS011;4370;48.916;8.380;2024-03-25T12:24:09;2.03;;;1.40;;
8665;SDS011;4370;48.916;8.380;2024-03-25T12:26:35;3.33;;;1.50;;
8665;SDS011;4370;48.916;8.380;2024-03-25T12:29:01;5.03;;;1.50;;
8665;SDS011;4370;48.916;8.380;2024-03-25T12:31:29;3.70;;;1.47;;
8665;SDS011;4370;48.916;8.380;2024-03-25T12:33:56;1.97;;;1.47;;
8665;SDS011;4370;48.916;8.380;2024-03-25T12:36:21;4.50;;;1.40;;
8665;SDS011;4370;48.916;8.380;2024-03-25T12:38:54;3.97;;;1.80;;
8665;SDS011;4370;48.916;8.380;2024-03-25T12:41:21;4.17;;;1.70;;
8665;SDS011;4370;48.916;8.380;2024-03-25T12:43:49;2.17;;;1.47;;
8665;SDS011;4370;48.916;8.380;2024-03-25T12:46:15;3.20;;;1.60;;
8665;SDS011;4370;48.916;8.380;2024-03-25T12:48:41;4.73;;;1.80;;
8665;SDS011;4370;48.916;8.380;2024-03-25T12:51:12;2.63;;;1.90;;
8665;SDS011;4370;48.916;8.380;2024-03-25T12:53:38;3.70;;;1.40;;
8665;SDS011;4370;48.916;8.380;2024-03-25T12:56:04;4.13;;;1.70;;
8665;SDS011;4370;48.916;8.380;2024-03-25T12:58:32;3.83;;;1.80;;
8665;SDS011;4370;48.916;8.380;2024-03-25T13:00:57;2.67;;;1.40;;
8665;SDS011;4370;48.916;8.380;2024-03-25T13:03:23;3.47;;;1.60;;
8665;SDS011;4370;48.916;8.380;2024-03-25T13:05:49;2.47;;;1.50;;
8665;SDS011;4370;48.916;8.380;2024-03-25T13:08:15;4.43;;;1.70;;
8665;SDS011;4370;48.916;8.380;2024-03-25T13:10:42;5.30;;;1.50;;
8665;SDS011;4370;48.916;8.380;2024-03-25T13:13:08;4.20;;;1.50;;
8665;SDS011;4370;48.916;8.380;2024-03-25T13:15:34;3.03;;;1.47;;
8665;SDS011;4370;48.916;8.380;2024-03-25T13:18:00;4.17;;;1.43;;
8665;SDS011;4370;48.916;8.380;2024-03-25T13:20:26;3.00;;;1.40;;
8665;SDS011;4370;48.916;8.380;2024-03-25T13:22:53;3.07;;;1.40;;
8665;SDS011;4370;48.916;8.380;2024-03-25T13:25:24;4.87;;;1.67;;
8665;SDS011;4370;48.916;8.380;2024-03-25T13:27:50;3.93;;;1.50;;
8665;SDS011;4370;48.916;8.380;2024-03-25T13:30:16;5.67;;;1.57;;
8665;SDS011;4370;48.916;8.380;2024-03-25T13:32:42;1.97;;;1.53;;
8665;SDS011;4370;48.916;8.380;2024-03-25T13:35:09;2.93;;;1.60;;
8665;SDS011;4370;48.916;8.380;2024-03-25T13:37:35;2.47;;;1.87;;
8665;SDS011;4370;48.916;8.380;2024-03-25T13:40:01;2.20;;;1.47;;
8665;SDS011;4370;48.916;8.380;2024-03-25T13:42:28;3.60;;;1.53;;
8665;SDS011;4370;48.916;8.380;2024-03-25T13:44:54;2.33;;;1.60;;
8665;SDS011;4370;48.916;8.380;2024-03-25T13:47:20;4.13;;;1.50;;
8665;SDS011;4370;48.916;8.380;2024-03-25T13:49:46;3.33;;;1.70;;
8665;SDS011;4370;48.916;8.380;2024-03-25T13:52:12;3.77;;;1.70;;
8665;SDS011;4370;48.916;8.380;2024-03-25T13:54:38;3.00;;;1.60;;
8665;SDS011;4370;48.916;8.380;2024-03-25T13:57:04;3.13;;;1.20;;
8665;SDS011;4370;48.916;8.380;2024-03-25T13:59:30;3.33;;;1.60;;
8665;SDS011;4370;48.916;8.380;2024-03-25T14:01:55;3.23;;;1.40;;
8665;SDS011;4370;48.916;8.380;2024-03-25T14:04:21;4.60;;;1.70;;
8665;SDS011;4370;48.916;8.380;2024-03-25T14:06:47;3.90;;;1.60;;
8665;SDS011;4370;48.916;8.380;2024-03-25T14:09:23;2.83;;;1.60;;
8665;SDS011;4370;48.916;8.380;2024-03-25T14:11:49;3.73;;;1.77;;
8665;SDS011;4370;48.916;8.380;2024-03-25T14:14:15;2.53;;;1.47;;
8665;SDS011;4370;48.916;8.380;2024-03-25T14:16:41;3.83;;;1.60;;
8665;SDS011;4370;48.916;8.380;2024-03-25T14:19:07;3.87;;;1.67;;
8665;SDS011;4370;48.916;8.380;2024-03-25T14:21:34;4.50;;;1.80;;
8665;SDS011;4370;48.916;8.380;2024-03-25T14:24:00;2.93;;;1.60;;
8665;SDS011;4370;48.916;8.380;2024-03-25T14:26:26;3.83;;;1.70;;
8665;SDS011;4370;48.916;8.380;2024-03-25T14:28:52;3.60;;;1.67;;
8665;SDS011;4370;48.916;8.380;2024-03-25T14:31:18;3.07;;;1.70;;
8665;SDS011;4370;48.916;8.380;2024-03-25T14:33:44;4.53;;;2.07;;
8665;SDS011;4370;48.916;8.380;2024-03-25T14:36:10;3.53;;;2.00;;
8665;SDS011;4370;48.916;8.380;2024-03-25T14:38:36;3.00;;;1.67;;
8665;SDS011;4370;48.916;8.380;2024-03-25T14:41:04;3.30;;;1.70;;
8665;SDS011;4370;48.916;8.380;2024-03-25T14:43:30;2.83;;;1.87;;
8665;SDS011;4370;48.916;8.380;2024-03-25T14:45:56;5.80;;;1.97;;
8665;SDS011;4370;48.916;8.380;2024-03-25T14:48:23;2.67;;;1.63;;
8665;SDS011;4370;48.916;8.380;2024-03-25T14:50:49;4.37;;;2.00;;
8665;SDS011;4370;48.916;8.380;2024-03-25T14:53:15;3.40;;;2.00;;
8665;SDS011;4370;48.916;8.380;2024-03-25T14:55:42;4.57;;;1.97;;
8665;SDS011;4370;48.916;8.380;2024-03-25T14:58:07;3.50;;;1.97;;
8665;SDS011;4370;48.916;8.380;2024-03-25T15:00:33;3.13;;;1.70;;
8665;SDS011;4370;48.916;8.380;2024-03-25T15:03:00;3.97;;;1.80;;
8665;SDS011;4370;48.916;8.380;2024-03-25T15:05:26;3.90;;;1.93;;
8665;SDS011;4370;48.916;8.380;2024-03-25T15:07:52;4.77;;;1.60;;
8665;SDS011;4370;48.916;8.380;2024-03-25T15:10:18;4.93;;;1.80;;
8665;SDS011;4370;48.916;8.380;2024-03-25T15:12:45;5.93;;;1.70;;
8665;SDS011;4370;48.916;8.380;2024-03-25T15:15:11;3.83;;;1.73;;
8665;SDS011;4370;48.916;8.380;2024-03-25T15:17:37;1.70;;;1.47;;